Time;durP1;ratioP1;P1;durP2;ratioP2;P2;SDS_P1;SDS_P2;PMS_P1;PMS_P2;Temp;Humidity;BMP_temperature;BMP_pressure;BME280_temperature;BME280_humidity;BME280_pressure;Samples;Min_cycle;Max_cycle;Signal;HPM_P1;HPM_P2
2023/05/19 00:00:43;;;;;;;9.05;7.03;;;;;;;8.72;89.76;102591.84;5004003;28;20022;-62
2023/05/19 00:03:11;;;;;;;11.25;7.05;;;;;;;8.53;91.16;102587.59;5003361;28;20065;-62
2023/05/19 00:05:44;;;;;;;9.52;7.38;;;;;;;8.47;92.81;102585.56;5004229;28;20022;-62
2023/05/19 00:08:10;;;;;;;8.77;7.43;;;;;;;8.50;94.09;102586.06;5006870;28;20034;-62
2023/05/19 00:10:35;;;;;;;9.38;6.90;;;;;;;8.48;93.94;102582.66;5007044;28;20492;-63
2023/05/19 00:13:01;;;;;;;9.15;7.13;;;;;;;8.48;94.08;102582.66;5006209;28;20388;-63
2023/05/19 00:15:26;;;;;;;7.88;7.05;;;;;;;8.46;94.78;102581.94;5007362;28;20104;-63
2023/05/19 00:17:54;;;;;;;10.93;6.65;;;;;;;8.47;95.37;102582.84;5006888;28;20022;-62
2023/05/19 00:20:19;;;;;;;10.40;7.20;;;;;;;8.50;96.03;102575.09;5007587;28;20412;-62
2023/05/19 00:22:44;;;;;;;9.65;6.57;;;;;;;8.49;96.29;102573.41;5006681;28;20375;-62
2023/05/19 00:25:10;;;;;;;8.93;6.50;;;;;;;8.51;95.85;102570.47;5006716;28;20029;-62
2023/05/19 00:27:35;;;;;;;7.93;5.97;;;;;;;8.54;96.75;102572.88;5005850;28;20058;-61
2023/05/19 00:30:00;;;;;;;8.80;6.22;;;;;;;8.54;97.46;102567.41;5006900;28;20424;-62
2023/05/19 00:32:25;;;;;;;9.13;6.03;;;;;;;8.55;97.40;102564.47;5006859;28;20026;-63
2023/05/19 00:34:51;;;;;;;9.38;6.22;;;;;;;8.53;96.98;102560.22;5006928;28;20377;-62
2023/05/19 00:37:16;;;;;;;7.68;6.20;;;;;;;8.50;97.42;102555.94;5006115;28;20034;-63
2023/05/19 00:39:42;;;;;;;9.18;5.50;;;;;;;8.54;96.31;102557.28;5005253;28;20833;-62
2023/05/19 00:42:08;;;;;;;8.07;5.50;;;;;;;8.50;95.44;102555.06;5005732;28;20036;-64
2023/05/19 00:44:38;;;;;;;8.65;5.70;;;;;;;8.47;95.65;102552.72;5006348;28;20046;-62
2023/05/19 00:47:04;;;;;;;9.75;6.15;;;;;;;8.34;98.09;102550.47;5005843;28;20022;-63
2023/05/19 00:49:29;;;;;;;9.18;6.03;;;;;;;8.33;97.44;102548.75;5006337;28;20018;-62
2023/05/19 00:51:55;;;;;;;7.70;5.60;;;;;;;8.43;96.65;102543.13;5005764;28;20025;-63
2023/05/19 00:54:20;;;;;;;8.95;6.07;;;;;;;8.29;97.35;102551.00;5007092;28;20026;-62
2023/05/19 00:56:46;;;;;;;8.02;5.75;;;;;;;8.24;98.30;102545.19;5006358;28;20046;-62
2023/05/19 00:59:11;;;;;;;8.10;5.63;;;;;;;8.23;98.23;102553.56;5005048;28;20026;-62
2023/05/19 01:01:37;;;;;;;8.77;5.55;;;;;;;8.20;98.38;102559.38;5006193;28;20469;-62
2023/05/19 01:04:04;;;;;;;8.48;5.60;;;;;;;8.17;98.78;102568.81;5006000;28;20057;-62
2023/05/19 01:06:29;;;;;;;8.18;5.38;;;;;;;8.19;98.53;102560.41;5005529;28;20061;-63
2023/05/19 01:08:56;;;;;;;9.20;5.90;;;;;;;8.13;99.13;102556.50;5004586;28;20122;-62
2023/05/19 01:11:21;;;;;;;7.45;5.22;;;;;;;8.25;98.26;102556.97;5006349;28;20053;-62
2023/05/19 01:13:47;;;;;;;8.43;6.00;;;;;;;8.10;98.84;102559.56;5004993;28;20026;-62
2023/05/19 01:16:45;;;;;;;9.02;5.22;;;;;;;8.36;97.29;102559.38;5005269;28;20018;-62
2023/05/19 01:19:31;;;;;;;8.70;5.78;;;;;;;8.13;98.58;102559.22;5005361;28;20026;-62
2023/05/19 01:22:21;;;;;;;9.55;5.80;;;;;;;8.09;98.49;102562.47;5005272;28;20101;-63
2023/05/19 01:25:28;;;;;;;9.77;6.13;;;;;;;8.15;98.86;102562.63;5006272;28;20042;-62
2023/05/19 01:28:09;;;;;;;8.23;5.63;;;;;;;8.11;98.57;102561.28;4955949;28;20052;-63
2023/05/19 01:30:43;;;;;;;8.70;5.57;;;;;;;7.98;99.58;102555.47;5005431;28;20677;-63
2023/05/19 01:33:13;;;;;;;7.45;5.32;;;;;;;7.94;100.00;102557.69;5005454;28;20034;-62
2023/05/19 01:35:39;;;;;;;9.07;5.35;;;;;;;8.01;99.29;102555.16;5006065;28;20018;-62
2023/05/19 01:38:08;;;;;;;9.18;5.72;;;;;;;7.96;99.39;102558.41;5004733;28;20353;-62
2023/05/19 01:40:34;;;;;;;9.90;5.60;;;;;;;7.95;99.77;102555.81;5005508;28;20053;-63
2023/05/19 01:43:01;;;;;;;8.20;5.53;;;;;;;7.89;100.00;102556.50;5004376;28;20049;-63
2023/05/19 01:45:32;;;;;;;9.35;5.70;;;;;;;7.88;100.00;102554.78;5005492;28;20026;-63
2023/05/19 01:48:00;;;;;;;9.07;6.20;;;;;;;7.79;100.00;102553.94;5005052;28;20092;-63
2023/05/19 01:50:25;;;;;;;8.40;6.10;;;;;;;7.77;100.00;102545.91;5005473;28;20026;-63
2023/05/19 01:52:51;;;;;;;9.82;6.88;;;;;;;7.82;100.00;102534.47;5005082;28;20032;-62
2023/05/19 01:55:16;;;;;;;10.07;5.85;;;;;;;7.83;99.99;102540.78;5005200;28;20032;-62
2023/05/19 01:58:15;;;;;;;10.52;6.57;;;;;;;7.69;100.00;102545.88;5004140;28;20062;-62
2023/05/19 02:00:43;;;;;;;8.82;5.90;;;;;;;7.68;100.00;102544.19;5005418;28;20112;-63
2023/05/19 02:03:16;;;;;;;11.07;6.32;;;;;;;7.84;100.00;102547.94;5004753;28;20041;-62
2023/05/19 02:05:58;;;;;;;12.15;6.38;;;;;;;7.67;100.00;102542.47;5005239;28;20060;-63
2023/05/19 02:08:30;;;;;;;9.02;6.88;;;;;;;7.73;100.00;102536.31;5005165;28;20022;-63
2023/05/19 02:11:17;;;;;;;8.75;6.25;;;;;;;7.64;100.00;102537.34;5004624;28;20412;-62
2023/05/19 02:13:47;;;;;;;9.13;6.47;;;;;;;7.58;100.00;102545.38;5004395;28;20026;-62
2023/05/19 02:16:13;;;;;;;9.35;6.18;;;;;;;7.57;100.00;102543.69;5004472;28;20033;-62
2023/05/19 02:18:44;;;;;;;9.27;6.20;;;;;;;7.58;100.00;102535.28;5005246;28;20026;-62
2023/05/19 02:21:12;;;;;;;9.75;6.57;;;;;;;7.67;100.00;102530.69;5004177;28;20022;-62
2023/05/19 02:23:38;;;;;;;8.75;6.20;;;;;;;7.64;100.00;102529.13;5004877;28;20030;-62
2023/05/19 02:26:04;;;;;;;9.82;7.05;;;;;;;7.51;100.00;102529.66;5004669;28;20025;-63
2023/05/19 02:28:29;;;;;;;9.35;6.80;;;;;;;7.57;100.00;102525.38;5003731;28;20026;-63
2023/05/19 02:30:54;;;;;;;9.15;6.40;;;;;;;7.50;100.00;102532.53;5004456;28;20018;-63
2023/05/19 02:33:23;;;;;;;9.63;6.65;;;;;;;7.46;100.00;102529.31;5005622;28;20549;-61
2023/05/19 02:35:48;;;;;;;10.85;6.90;;;;;;;7.49;100.00;102523.50;5062626;23;20061;-62
2023/05/19 02:38:13;;;;;;;10.60;7.05;;;;;;;7.51;100.00;102526.94;5023015;28;20021;-62
2023/05/19 02:40:39;;;;;;;8.35;7.15;;;;;;;7.43;100.00;102524.16;5023719;28;20116;-63
2023/05/19 02:43:05;;;;;;;9.25;6.45;;;;;;;7.49;100.00;102528.97;5022660;28;20018;-63
2023/05/19 02:45:30;;;;;;;9.65;6.85;;;;;;;7.35;100.00;102521.44;5023371;28;20671;-63
2023/05/19 02:47:55;;;;;;;11.25;6.82;;;;;;;7.38;100.00;102520.22;5023494;28;20025;-63
2023/05/19 02:50:21;;;;;;;10.68;6.50;;;;;;;7.34;100.00;102522.44;5022763;28;20072;-61
2023/05/19 02:52:46;;;;;;;8.18;6.90;;;;;;;7.44;100.00;102522.28;5022769;28;20022;-62
2023/05/19 02:55:15;;;;;;;10.43;6.30;;;;;;;7.47;100.00;102520.09;5023078;28;20029;-62
2023/05/19 02:57:41;;;;;;;9.80;6.50;;;;;;;7.48;100.00;102515.47;5022612;28;20025;-62
2023/05/19 03:00:07;;;;;;;10.70;7.10;;;;;;;7.28;100.00;102513.03;5023244;28;20034;-62
2023/05/19 03:02:32;;;;;;;9.02;6.72;;;;;;;7.29;100.00;102512.00;5022831;28;20069;-63
2023/05/19 03:05:00;;;;;;;9.75;6.63;;;;;;;7.33;100.00;102509.81;5023370;28;20069;-63
2023/05/19 03:07:25;;;;;;;9.77;6.72;;;;;;;7.31;100.00;102509.13;5023114;28;20513;-63
2023/05/19 03:09:51;;;;;;;10.30;7.43;;;;;;;7.26;100.00;102512.38;5023690;28;20171;-63
2023/05/19 03:12:17;;;;;;;10.68;7.22;;;;;;;7.25;100.00;102510.66;5022356;28;20061;-61
2023/05/19 03:14:42;;;;;;;9.88;6.85;;;;;;;7.27;100.00;102510.50;5023550;28;20033;-62
2023/05/19 03:17:08;;;;;;;9.00;6.90;;;;;;;7.32;100.00;102512.72;5022541;28;20179;-62
2023/05/19 03:19:34;;;;;;;9.05;7.15;;;;;;;7.22;100.00;102511.00;5023553;28;20036;-63
2023/05/19 03:21:59;;;;;;;8.63;7.07;;;;;;;7.25;100.00;102512.53;5022566;28;20029;-63
2023/05/19 03:24:25;;;;;;;8.77;7.18;;;;;;;7.24;100.00;102522.59;5022497;28;20172;-63
2023/05/19 03:26:50;;;;;;;9.45;7.13;;;;;;;7.21;100.00;102520.22;5022778;28;20032;-62
2023/05/19 03:29:15;;;;;;;9.45;6.93;;;;;;;7.21;100.00;102520.22;5023248;28;20033;-63
2023/05/19 03:31:41;;;;;;;9.73;7.53;;;;;;;7.25;100.00;102509.81;5023255;28;20026;-62
2023/05/19 03:34:06;;;;;;;10.27;7.03;;;;;;;7.25;100.00;102516.13;5022615;28;20033;-63
2023/05/19 03:36:31;;;;;;;8.93;6.65;;;;;;;7.25;100.00;102520.75;5022313;28;20044;-63
2023/05/19 03:38:57;;;;;;;9.25;7.15;;;;;;;7.19;100.00;102526.84;5022748;28;20262;-63
2023/05/19 03:41:23;;;;;;;9.57;6.93;;;;;;;7.14;100.00;102521.88;5026773;28;20348;-62
2023/05/19 03:43:48;;;;;;;11.73;6.95;;;;;;;7.18;100.00;102531.47;5026676;28;20017;-63
2023/05/19 03:46:13;;;;;;;8.90;7.03;;;;;;;7.21;100.00;102527.56;5026640;28;20029;-63
2023/05/19 03:48:38;;;;;;;9.25;6.75;;;;;;;7.19;100.00;102522.25;5026428;28;20204;-62
2023/05/19 03:51:04;;;;;;;10.40;7.43;;;;;;;7.20;100.00;102534.06;5026211;28;20029;-63
2023/05/19 03:53:29;;;;;;;9.30;7.30;;;;;;;7.21;100.00;102533.03;5026778;28;20056;-63
2023/05/19 03:55:55;;;;;;;11.38;7.25;;;;;;;7.24;100.00;102530.78;5026069;28;20025;-63
2023/05/19 03:58:20;;;;;;;10.82;7.40;;;;;;;7.21;100.00;102528.41;5025806;28;20048;-62
2023/05/19 04:00:45;;;;;;;11.38;7.72;;;;;;;7.18;100.00;102528.72;5026245;28;20079;-62
2023/05/19 04:03:11;;;;;;;10.70;7.47;;;;;;;7.20;100.00;102534.91;5026236;28;20032;-63
2023/05/19 04:05:36;;;;;;;9.50;7.40;;;;;;;7.23;100.00;102531.81;5026007;28;20484;-63
2023/05/19 04:08:01;;;;;;;10.75;7.10;;;;;;;7.23;100.00;102533.69;5025465;28;20079;-63
2023/05/19 04:10:27;;;;;;;10.60;7.88;;;;;;;7.22;100.00;102530.13;5025072;28;20025;-63
2023/05/19 04:12:52;;;;;;;9.30;7.05;;;;;;;7.24;100.00;102528.06;5025352;28;20025;-63
2023/05/19 04:15:17;;;;;;;10.40;6.75;;;;;;;7.25;100.00;102535.25;5026025;28;20037;-62
2023/05/19 04:17:43;;;;;;;9.30;7.07;;;;;;;7.27;100.00;102530.47;5025812;28;20021;-62
2023/05/19 04:20:09;;;;;;;9.65;7.10;;;;;;;7.25;100.00;102537.13;5025759;28;20033;-63
2023/05/19 04:22:34;;;;;;;10.75;7.20;;;;;;;7.27;100.00;102538.66;5025124;28;20105;-63
2023/05/19 04:24:59;;;;;;;10.82;7.50;;;;;;;7.27;100.00;102529.63;5025411;28;20025;-63
2023/05/19 04:27:26;;;;;;;9.50;7.00;;;;;;;7.32;100.00;102540.06;5025019;28;20083;-63
2023/05/19 04:29:53;;;;;;;9.45;7.40;;;;;;;7.35;100.00;102536.97;5025868;28;20025;-62
2023/05/19 04:32:19;;;;;;;11.10;7.43;;;;;;;7.47;100.00;102532.91;5026340;28;20044;-62
2023/05/19 04:34:44;;;;;;;11.45;7.53;;;;;;;7.39;100.00;102522.78;5025840;28;20524;-63
2023/05/19 04:37:13;;;;;;;10.57;7.68;;;;;;;7.46;100.00;102533.94;5025032;28;20025;-63
2023/05/19 04:39:41;;;;;;;9.85;7.30;;;;;;;7.41;100.00;102531.69;5025767;28;20059;-62
2023/05/19 04:42:07;;;;;;;11.05;7.63;;;;;;;7.41;100.00;102531.69;5024792;28;20104;-63
2023/05/19 04:44:33;;;;;;;11.15;7.57;;;;;;;7.41;100.00;102528.13;5025525;28;20083;-63
2023/05/19 04:46:58;;;;;;;11.15;7.25;;;;;;;7.41;100.00;102526.22;5025415;28;20087;-63
2023/05/19 04:49:24;;;;;;;10.23;7.10;;;;;;;7.47;100.00;102533.75;5025413;28;20329;-63
2023/05/19 04:51:50;;;;;;;9.60;7.55;;;;;;;7.47;100.00;102531.00;5024546;28;20057;-62
2023/05/19 04:54:16;;;;;;;11.73;7.43;;;;;;;7.49;100.00;102539.03;5024674;28;20025;-62
2023/05/19 04:56:42;;;;;;;12.43;7.78;;;;;;;7.54;100.00;102540.25;5024714;28;20083;-63
2023/05/19 04:59:08;;;;;;;10.77;7.93;;;;;;;7.58;100.00;102535.28;5024926;28;20017;-62
2023/05/19 05:01:38;;;;;;;9.70;7.63;;;;;;;7.61;100.00;102534.97;5024774;28;20036;-62
2023/05/19 05:04:04;;;;;;;11.25;7.70;;;;;;;7.69;100.00;102528.63;5024737;28;20056;-63
2023/05/19 05:06:30;;;;;;;10.07;8.10;;;;;;;7.71;100.00;102535.66;5023093;28;20017;-63
2023/05/19 05:08:56;;;;;;;9.20;7.50;;;;;;;7.79;100.00;102535.63;5024549;28;20106;-63
2023/05/19 05:11:21;;;;;;;11.82;8.18;;;;;;;7.84;100.00;102539.75;5025586;28;20040;-63
2023/05/19 05:13:47;;;;;;;9.73;7.68;;;;;;;7.84;100.00;102539.75;5024473;28;20096;-63
2023/05/19 05:16:13;;;;;;;11.05;8.02;;;;;;;7.88;100.00;102546.59;5024044;28;20025;-63
2023/05/19 05:18:38;;;;;;;11.13;7.05;;;;;;;8.01;100.00;102545.06;5024606;28;20040;-63
2023/05/19 05:21:05;;;;;;;10.18;7.80;;;;;;;8.01;100.00;102544.19;5023891;28;20029;-63
2023/05/19 05:23:31;;;;;;;8.93;7.40;;;;;;;8.10;100.00;102537.66;5024552;28;20116;-63
2023/05/19 05:25:56;;;;;;;10.00;8.23;;;;;;;8.08;100.00;102531.53;5024459;28;20113;-63
2023/05/19 05:28:22;;;;;;;11.13;7.55;;;;;;;8.20;100.00;102538.34;5024005;28;20087;-62
2023/05/19 05:30:47;;;;;;;9.70;7.25;;;;;;;8.27;100.00;102539.38;5024225;28;20047;-63
2023/05/19 05:33:13;;;;;;;12.00;8.13;;;;;;;8.33;100.00;102544.13;5023895;28;20048;-62
2023/05/19 05:35:39;;;;;;;9.98;7.78;;;;;;;8.43;100.00;102545.88;5024591;28;20124;-62
2023/05/19 05:38:04;;;;;;;11.52;7.43;;;;;;;8.48;100.00;102536.09;5024065;28;20571;-62
2023/05/19 05:40:29;;;;;;;10.88;7.93;;;;;;;8.56;100.00;102546.16;5022419;28;20030;-63
2023/05/19 05:42:55;;;;;;;10.65;8.02;;;;;;;8.64;100.00;102553.50;5023128;28;20028;-62
2023/05/19 05:45:24;;;;;;;11.13;8.13;;;;;;;8.73;100.00;102533.28;5024946;28;20057;-62
2023/05/19 05:47:50;;;;;;;12.02;8.63;;;;;;;8.84;100.00;102541.94;5024705;28;20029;-62
2023/05/19 05:50:16;;;;;;;10.65;8.13;;;;;;;8.94;100.00;102540.88;5023976;28;20029;-62
2023/05/19 05:52:45;;;;;;;10.50;7.90;;;;;;;9.02;100.00;102544.47;5023800;28;20095;-63
2023/05/19 05:55:11;;;;;;;10.32;7.00;;;;;;;9.21;100.00;102542.28;5023688;28;20396;-63
2023/05/19 05:57:36;;;;;;;10.77;7.40;;;;;;;9.22;100.00;102539.34;5023159;28;20260;-62
2023/05/19 06:00:06;;;;;;;10.45;7.30;;;;;;;9.23;100.00;102540.22;5023758;28;20036;-63
2023/05/19 06:02:31;;;;;;;10.23;6.80;;;;;;;9.33;100.00;102529.88;5021571;28;20305;-62
2023/05/19 06:04:57;;;;;;;10.35;7.53;;;;;;;9.29;100.00;102536.75;5023033;28;20013;-62
2023/05/19 06:07:23;;;;;;;9.02;7.38;;;;;;;9.28;100.00;102540.53;5024256;28;20021;-62
2023/05/19 06:09:48;;;;;;;11.98;7.35;;;;;;;9.34;100.00;102540.66;5022909;28;20349;-62
2023/05/19 06:12:13;;;;;;;10.15;6.90;;;;;;;9.50;99.47;102542.44;5022324;28;20040;-63
2023/05/19 06:14:38;;;;;;;10.77;7.57;;;;;;;9.47;99.25;102544.69;5023789;28;20026;-63
2023/05/19 06:17:04;;;;;;;9.82;7.25;;;;;;;9.46;100.00;102545.72;5023949;28;20586;-63
2023/05/19 06:19:29;;;;;;;10.07;7.47;;;;;;;9.51;100.00;102546.03;5023030;28;20030;-63
2023/05/19 06:21:54;;;;;;;8.88;7.28;;;;;;;9.58;100.00;102549.78;5022872;28;20503;-63
2023/05/19 06:24:20;;;;;;;9.60;6.95;;;;;;;9.73;97.09;102538.81;5023638;28;20076;-63
2023/05/19 06:26:45;;;;;;;10.60;7.05;;;;;;;9.72;99.50;102539.88;5022358;28;20483;-63
2023/05/19 06:29:10;;;;;;;9.48;7.35;;;;;;;9.77;98.36;102549.25;5023786;28;20028;-62
2023/05/19 06:31:36;;;;;;;10.88;7.18;;;;;;;9.93;97.24;102544.66;5023534;28;20545;-63
2023/05/19 06:34:01;;;;;;;10.80;6.60;;;;;;;10.02;96.57;102538.94;5022848;28;20053;-62
2023/05/19 06:36:26;;;;;;;10.10;7.05;;;;;;;10.14;95.22;102547.59;5022537;28;20049;-63
2023/05/19 06:38:51;;;;;;;11.20;6.93;;;;;;;10.20;95.68;102549.59;5023838;28;20076;-63
2023/05/19 06:41:17;;;;;;;11.15;7.03;;;;;;;10.29;96.46;102551.25;5022237;28;20034;-63
2023/05/19 06:43:42;;;;;;;10.90;6.90;;;;;;;10.41;96.33;102548.03;5022876;28;20090;-62
2023/05/19 06:46:07;;;;;;;11.35;7.03;;;;;;;10.55;94.88;102550.78;5023180;28;20040;-63
2023/05/19 06:48:32;;;;;;;11.20;7.07;;;;;;;10.70;92.83;102544.44;5023325;28;20072;-63
2023/05/19 06:50:58;;;;;;;11.05;6.82;;;;;;;10.81;90.67;102547.56;5022229;28;20144;-62
2023/05/19 06:53:23;;;;;;;9.52;6.30;;;;;;;10.79;92.06;102544.13;5023559;28;20222;-63
2023/05/19 06:55:51;;;;;;;7.55;6.00;;;;;;;10.84;91.82;102540.81;5023421;28;20032;-63
2023/05/19 06:58:16;;;;;;;9.13;6.43;;;;;;;10.88;92.58;102543.00;5022194;28;20025;-62
2023/05/19 07:00:42;;;;;;;9.88;6.30;;;;;;;11.00;90.85;102539.75;5023251;28;20082;-63
2023/05/19 07:03:08;;;;;;;9.98;5.80;;;;;;;11.11;91.23;102534.63;5023018;28;20407;-62
2023/05/19 07:05:33;;;;;;;11.32;6.57;;;;;;;11.23;89.92;102547.88;5023230;28;20169;-62
2023/05/19 07:07:59;;;;;;;8.93;6.18;;;;;;;11.32;92.04;102544.81;5021806;28;20514;-62
2023/05/19 07:10:24;;;;;;;9.63;6.07;;;;;;;11.45;88.64;102544.09;5023365;28;20048;-63
2023/05/19 07:12:49;;;;;;;9.90;6.22;;;;;;;11.55;87.50;102538.28;5022914;28;20029;-63
2023/05/19 07:15:15;;;;;;;8.80;6.22;;;;;;;11.62;87.53;102544.72;5024277;28;20072;-62
2023/05/19 07:17:40;;;;;;;10.23;5.78;;;;;;;11.76;84.56;102540.16;5027215;28;20053;-62
2023/05/19 07:20:08;;;;;;;9.07;6.05;;;;;;;11.77;86.63;102548.25;5027282;28;20353;-62
2023/05/19 07:22:34;;;;;;;8.88;6.57;;;;;;;11.90;85.60;102548.38;5025227;28;20051;-62
2023/05/19 07:24:59;;;;;;;9.02;6.07;;;;;;;12.04;87.77;102543.84;5027111;28;20030;-63
2023/05/19 07:27:25;;;;;;;8.23;5.03;;;;;;;12.24;85.94;102544.00;5026238;28;20100;-63
2023/05/19 07:29:50;;;;;;;7.07;5.38;;;;;;;12.51;83.21;102533.16;5027133;28;20491;-62
2023/05/19 07:32:15;;;;;;;7.60;4.80;;;;;;;12.76;79.29;102536.28;5026184;28;20044;-63
2023/05/19 07:34:41;;;;;;;10.32;5.55;;;;;;;13.24;77.92;102528.91;5026860;28;20125;-63
2023/05/19 07:37:06;;;;;;;8.25;4.95;;;;;;;13.88;76.57;102531.13;5026141;28;20040;-62
2023/05/19 07:39:33;;;;;;;7.40;4.40;;;;;;;14.48;73.58;102529.22;5026720;28;20411;-62
2023/05/19 07:41:59;;;;;;;9.40;4.00;;;;;;;14.83;68.32;102534.44;5025309;28;20021;-62
2023/05/19 07:44:25;;;;;;;5.45;2.95;;;;;;;14.91;65.58;102528.69;5026827;28;20043;-63
2023/05/19 07:46:51;;;;;;;7.20;3.90;;;;;;;14.50;68.24;102531.78;5024573;28;20676;-63
2023/05/19 07:49:16;;;;;;;6.20;3.47;;;;;;;14.23;68.29;102534.53;5026480;28;20075;-63
2023/05/19 07:51:41;;;;;;;8.27;3.70;;;;;;;14.03;70.20;102534.53;5025731;28;20190;-62
2023/05/19 07:54:07;;;;;;;8.35;3.92;;;;;;;13.93;74.58;102531.34;5026250;28;20056;-62
2023/05/19 07:56:32;;;;;;;7.25;4.03;;;;;;;13.99;69.94;102532.44;5025087;28;20025;-63
2023/05/19 07:58:58;;;;;;;8.98;4.03;;;;;;;13.94;69.24;102527.53;5025838;28;20380;-62
2023/05/19 08:01:23;;;;;;;7.75;3.45;;;;;;;13.89;69.66;102530.09;5026827;28;20109;-63
2023/05/19 08:03:48;;;;;;;8.43;3.22;;;;;;;13.91;70.39;102525.19;5024680;28;20495;-62
2023/05/19 08:06:14;;;;;;;7.68;3.83;;;;;;;13.96;68.45;102524.56;5024392;28;20021;-63
2023/05/19 08:08:39;;;;;;;7.88;3.40;;;;;;;14.05;70.15;102520.53;5025805;28;20025;-62
2023/05/19 08:11:05;;;;;;;6.65;3.55;;;;;;;14.23;68.98;102519.84;5024814;28;20097;-61
2023/05/19 08:13:30;;;;;;;7.65;3.55;;;;;;;14.33;68.69;102511.13;5026115;28;20021;-63
2023/05/19 08:15:58;;;;;;;6.93;3.63;;;;;;;14.42;68.77;102512.63;5025362;28;20102;-62
2023/05/19 08:18:24;;;;;;;8.32;3.95;;;;;;;14.51;72.53;102514.97;5026229;28;20277;-63
2023/05/19 08:20:50;;;;;;;7.40;3.13;;;;;;;14.70;68.99;102510.44;5026106;28;20361;-63
2023/05/19 08:23:16;;;;;;;5.25;3.25;;;;;;;14.78;65.15;102515.72;5025072;28;20451;-63
2023/05/19 08:25:41;;;;;;;6.85;3.08;;;;;;;14.82;64.27;102518.06;5025797;28;20033;-63
2023/05/19 08:28:07;;;;;;;6.70;3.10;;;;;;;14.83;65.20;102505.94;5022887;28;20426;-62
2023/05/19 08:30:32;;;;;;;7.07;3.65;;;;;;;14.92;67.55;102505.47;5025910;28;20070;-62
2023/05/19 08:32:57;;;;;;;6.78;3.30;;;;;;;15.12;65.50;102510.91;5024976;28;20325;-63
2023/05/19 08:35:23;;;;;;;7.15;3.33;;;;;;;15.21;63.64;102500.44;5025641;28;20041;-62
2023/05/19 08:37:48;;;;;;;7.72;3.72;;;;;;;15.22;63.60;102505.75;5025019;28;20037;-62
2023/05/19 08:40:16;;;;;;;7.22;3.60;;;;;;;15.18;65.39;102498.09;5025221;28;20040;-63
2023/05/19 08:42:42;;;;;;;6.15;3.30;;;;;;;15.27;63.30;102494.03;5024473;28;20105;-62
2023/05/19 08:45:07;;;;;;;5.70;3.20;;;;;;;15.40;62.64;102496.69;5024795;28;20678;-63
2023/05/19 08:47:33;;;;;;;6.00;3.03;;;;;;;15.48;64.47;102492.81;5025180;28;20064;-63
2023/05/19 08:50:06;;;;;;;8.15;2.90;;;;;;;15.64;61.08;102484.00;5025145;28;20392;-62
2023/05/19 08:52:49;;;;;;;4.63;2.60;;;;;;;15.71;60.66;102489.47;5024669;28;20407;-63
2023/05/19 08:55:27;;;;;;;6.50;2.80;;;;;;;15.81;61.43;102482.38;5024847;28;20462;-62
2023/05/19 08:57:53;;;;;;;6.45;2.90;;;;;;;16.07;58.87;102480.44;5024672;28;20021;-62
2023/05/19 09:00:19;;;;;;;7.18;2.90;;;;;;;16.36;60.75;102478.84;5025342;28;20056;-62
2023/05/19 09:02:49;;;;;;;6.38;2.40;;;;;;;16.61;58.89;102468.53;5024793;28;20021;-62
2023/05/19 09:05:16;;;;;;;3.80;2.03;;;;;;;16.60;55.68;102472.41;5024866;28;20112;-63
2023/05/19 09:07:42;;;;;;;4.57;2.13;;;;;;;16.60;57.20;102475.19;5024657;28;20021;-63
2023/05/19 09:10:08;;;;;;;5.85;2.25;;;;;;;16.71;58.78;102470.81;5024354;28;20387;-62
2023/05/19 09:12:33;;;;;;;5.65;2.33;;;;;;;16.75;58.61;102471.19;5024062;28;20025;-63
2023/05/19 09:14:59;;;;;;;6.90;2.03;;;;;;;17.02;54.08;102464.22;5024502;28;20057;-62
2023/05/19 09:17:25;;;;;;;5.40;1.95;;;;;;;17.05;55.50;102465.69;5024716;28;20029;-63
2023/05/19 09:19:50;;;;;;;4.57;1.90;;;;;;;17.19;54.35;102466.34;5024790;28;20030;-62
2023/05/19 09:22:18;;;;;;;6.05;2.00;;;;;;;17.21;52.42;102453.91;5023997;28;20116;-62
2023/05/19 09:24:43;;;;;;;3.65;1.70;;;;;;;17.33;54.02;102457.56;5024695;28;20030;-63
2023/05/19 09:27:08;;;;;;;5.85;1.67;;;;;;;17.72;53.27;102448.84;5022713;28;20385;-62
2023/05/19 09:29:34;;;;;;;5.57;1.83;;;;;;;18.85;50.50;102444.81;5024618;28;20037;-63
2023/05/19 09:32:02;;;;;;;4.68;1.60;;;;;;;19.40;48.46;102445.03;5024167;28;20460;-62
2023/05/19 09:34:28;;;;;;;5.05;1.88;;;;;;;20.50;45.54;102442.66;5023940;28;20033;-63
2023/05/19 09:36:53;;;;;;;6.30;1.60;;;;;;;21.62;40.38;102448.66;5024154;28;20022;-63
2023/05/19 09:39:20;;;;;;;4.07;1.92;;;;;;;22.01;39.19;102441.72;5024498;28;20502;-63
2023/05/19 09:41:49;;;;;;;3.97;1.50;;;;;;;22.76;35.27;102434.03;5023136;28;20038;-62
2023/05/19 09:44:22;;;;;;;5.38;1.70;;;;;;;24.18;34.14;102442.91;5024365;28;20391;-63
2023/05/19 09:46:51;;;;;;;5.43;1.38;;;;;;;25.02;30.58;102444.03;5024507;28;20026;-63
2023/05/19 09:49:24;;;;;;;4.65;1.70;;;;;;;25.49;32.43;102453.84;5022569;28;20028;-63
2023/05/19 09:51:57;;;;;;;4.15;1.70;;;;;;;25.99;30.48;102454.59;5024513;28;20028;-63
2023/05/19 09:54:23;;;;;;;6.07;1.85;;;;;;;25.60;29.91;102455.50;5024694;28;20028;-63
2023/05/19 09:57:02;;;;;;;4.63;1.60;;;;;;;25.36;31.18;102456.22;5023185;28;20421;-63
2023/05/19 09:59:28;;;;;;;6.32;1.90;;;;;;;24.26;35.01;102460.00;5024283;28;20103;-62
2023/05/19 10:01:55;;;;;;;5.63;1.65;;;;;;;24.32;31.07;102449.59;5023511;28;20022;-63
2023/05/19 10:04:22;;;;;;;4.85;1.67;;;;;;;25.67;31.28;102444.72;5024194;28;20073;-62
2023/05/19 10:06:53;;;;;;;4.65;1.60;;;;;;;25.59;31.35;102442.53;5023807;28;20040;-63
2023/05/19 10:09:26;;;;;;;4.05;1.50;;;;;;;24.38;31.22;102450.47;5023989;28;20124;-62
2023/05/19 10:11:55;;;;;;;3.38;1.40;;;;;;;23.39;30.25;102450.75;5023599;28;20029;-63
2023/05/19 10:14:28;;;;;;;4.28;1.58;;;;;;;23.16;31.09;102446.50;5024702;28;20424;-63
2023/05/19 10:16:55;;;;;;;7.18;1.65;;;;;;;24.55;29.35;102436.94;5023635;28;20032;-63
2023/05/19 10:19:22;;;;;;;4.35;1.35;;;;;;;25.82;30.21;102444.63;5024444;28;20256;-62
2023/05/19 10:21:49;;;;;;;3.67;1.40;;;;;;;26.79;28.36;102437.94;5022863;28;20025;-62
2023/05/19 10:24:14;;;;;;;4.93;1.55;;;;;;;27.78;26.66;102437.06;5023596;28;20357;-62
2023/05/19 10:26:44;;;;;;;4.35;1.90;;;;;;;27.20;27.52;102434.56;5022328;28;20080;-62
2023/05/19 10:29:11;;;;;;;5.93;1.73;;;;;;;25.98;28.41;102444.47;5022571;28;20292;-62
2023/05/19 10:31:39;;;;;;;4.32;1.67;;;;;;;25.43;29.32;102441.81;5022261;28;20371;-62
2023/05/19 10:34:22;;;;;;;4.13;1.50;;;;;;;25.50;28.79;102435.88;5023320;28;20048;-63
2023/05/19 10:36:49;;;;;;;4.75;2.03;;;;;;;25.76;29.55;102422.47;5022383;28;20033;-63
2023/05/19 10:39:34;;;;;;;5.63;2.10;;;;;;;26.42;30.45;102418.09;5023177;28;20072;-62
2023/05/19 10:42:20;;;;;;;5.28;2.10;;;;;;;27.23;31.31;102424.66;5021891;28;20026;-61
2023/05/19 10:45:12;;;;;;;6.07;2.20;;;;;;;25.56;32.05;102415.00;5023484;28;20060;-62
2023/05/19 10:47:40;;;;;;;4.90;1.90;;;;;;;23.73;32.93;102422.22;5021646;28;20018;-63
2023/05/19 10:50:06;;;;;;;5.30;1.90;;;;;;;23.73;37.73;102417.44;5022560;28;20026;-62
2023/05/19 10:52:36;;;;;;;3.72;1.95;;;;;;;23.59;35.72;102416.28;5022496;28;20480;-62
2023/05/19 10:55:01;;;;;;;5.15;2.08;;;;;;;22.66;37.14;102420.00;5023006;28;20419;-62
2023/05/19 10:57:27;;;;;;;4.50;2.10;;;;;;;22.09;39.47;102408.75;5022707;28;20469;-62
2023/05/19 10:59:54;;;;;;;5.30;2.10;;;;;;;21.71;37.86;102413.53;5023731;28;20124;-63
2023/05/19 11:02:40;;;;;;;4.45;2.13;;;;;;;21.82;37.29;102411.63;5023158;28;20028;-62
2023/05/19 11:05:17;;;;;;;3.25;1.67;;;;;;;21.44;35.51;102399.56;5022457;28;20389;-62
2023/05/19 11:08:06;;;;;;;4.90;1.83;;;;;;;21.19;37.56;102409.41;5022875;28;20029;-62
2023/05/19 11:10:32;;;;;;;5.78;1.90;;;;;;;21.02;38.60;102411.44;5022069;28;20391;-62
2023/05/19 11:12:57;;;;;;;5.43;1.80;;;;;;;20.97;39.08;102403.00;5022594;28;20018;-62
2023/05/19 11:15:25;;;;;;;5.40;1.88;;;;;;;20.95;36.41;102399.63;5023476;28;20432;-63
2023/05/19 11:17:51;;;;;;;4.90;1.98;;;;;;;21.13;42.64;102404.00;5023085;28;20025;-62
2023/05/19 11:20:24;;;;;;;5.43;1.75;;;;;;;21.40;40.51;102395.66;5022665;28;20060;-62
2023/05/19 11:23:02;;;;;;;5.20;1.65;;;;;;;21.61;41.00;102399.47;5022499;28;20030;-62
2023/05/19 11:25:47;;;;;;;4.45;1.80;;;;;;;21.62;38.74;102395.53;5022464;28;20018;-63